Aviation Digital Data Service (ADDS)

Output produced by METARs form (2308 UTC 04 September 2015)
found at http://aviationweather.gov/adds/metars/
 
KSBY 041724Z 0418/0518 07008KT P6SM SCT040 
     FM050000 07008KT P6SM BKN050 
     FM050300 04008KT P6SM OVC020 
     FM050500 03009KT 4SM BR OVC010 
     FM051400 05010G15KT P6SM OVC020